Time;durP1;ratioP1;P1;durP2;ratioP2;P2;SDS_P1;SDS_P2;PMS_P1;PMS_P2;Temp;Humidity;BMP_temperature;BMP_pressure;BME280_temperature;BME280_humidity;BME280_pressure;Samples;Min_cycle;Max_cycle;Signal;HPM_P1;HPM_P2
2022/07/22 00:00:21;;;;;;;13.20;4.03;;;17.10;99.90;;;;;;5072833;28;20048;-72
2022/07/22 00:02:47;;;;;;;16.27;4.32;;;17.00;99.90;;;;;;5054164;28;20485;-71
2022/07/22 00:05:13;;;;;;;13.82;4.03;;;17.00;99.90;;;;;;5072685;28;20546;-71
2022/07/22 00:07:39;;;;;;;9.02;3.72;;;17.10;99.90;;;;;;5037234;28;20048;-71
2022/07/22 00:10:07;;;;;;;16.17;4.80;;;17.10;99.90;;;;;;5072464;28;20048;-72
2022/07/22 00:12:33;;;;;;;15.88;4.03;;;17.00;99.90;;;;;;5072123;28;20091;-71
2022/07/22 00:14:59;;;;;;;13.02;3.70;;;17.00;99.90;;;;;;5072367;28;20036;-71
2022/07/22 00:17:24;;;;;;;14.77;4.13;;;17.00;99.90;;;;;;5072269;28;20078;-71
2022/07/22 00:19:50;;;;;;;10.98;3.58;;;17.10;99.90;;;;;;5054644;28;20040;-71
2022/07/22 00:22:16;;;;;;;13.35;3.92;;;17.10;99.90;;;;;;5054336;28;20548;-71
2022/07/22 00:24:41;;;;;;;12.50;3.47;;;17.10;99.90;;;;;;5072106;28;20477;-71
2022/07/22 00:27:07;;;;;;;8.60;3.15;;;17.10;99.90;;;;;;5054210;28;20040;-71
2022/07/22 00:29:32;;;;;;;10.68;3.40;;;17.30;99.90;;;;;;5071986;28;20120;-72
2022/07/22 00:31:58;;;;;;;9.68;3.10;;;17.20;99.90;;;;;;5070821;28;20512;-71
2022/07/22 00:34:24;;;;;;;13.23;3.33;;;17.10;99.90;;;;;;5052503;28;20036;-71
2022/07/22 00:36:49;;;;;;;9.57;2.70;;;17.20;99.90;;;;;;5072349;28;20041;-71
2022/07/22 00:39:15;;;;;;;10.52;3.17;;;17.10;99.90;;;;;;5072197;28;20071;-71
2022/07/22 00:41:41;;;;;;;7.22;2.53;;;17.10;99.90;;;;;;5068255;28;20052;-71
2022/07/22 00:44:08;;;;;;;12.82;2.65;;;17.00;99.90;;;;;;5071579;28;20551;-71
2022/07/22 00:46:36;;;;;;;12.93;3.05;;;17.00;99.90;;;;;;5072059;28;20496;-71
2022/07/22 00:49:03;;;;;;;10.15;2.95;;;17.00;99.90;;;;;;5071588;28;20127;-71
2022/07/22 00:51:29;;;;;;;7.50;3.08;;;17.00;99.90;;;;;;5072029;28;20047;-71
2022/07/22 00:53:56;;;;;;;9.43;2.75;;;17.00;99.90;;;;;;5072062;28;20424;-72
2022/07/22 00:56:23;;;;;;;12.30;2.78;;;17.40;99.90;;;;;;5054356;28;20049;-71
2022/07/22 00:58:52;;;;;;;9.65;2.88;;;17.20;99.90;;;;;;5071902;28;20090;-71
2022/07/22 01:01:18;;;;;;;9.98;2.75;;;17.40;99.90;;;;;;5053694;28;20051;-71
2022/07/22 01:03:43;;;;;;;7.22;2.45;;;17.50;99.90;;;;;;5071705;28;20074;-71
2022/07/22 01:06:10;;;;;;;8.70;2.38;;;17.00;99.90;;;;;;5071957;28;20037;-71
2022/07/22 01:08:37;;;;;;;9.80;2.70;;;17.40;99.90;;;;;;5071715;28;20055;-71
2022/07/22 01:11:17;;;;;;;8.00;2.67;;;17.00;99.90;;;;;;5071984;28;20052;-71
2022/07/22 01:13:44;;;;;;;8.57;2.70;;;17.00;99.90;;;;;;5043506;28;20049;-71
2022/07/22 01:16:10;;;;;;;11.02;2.70;;;17.00;99.90;;;;;;5055686;28;20150;-71
2022/07/22 01:18:37;;;;;;;8.60;2.42;;;17.00;99.90;;;;;;5073260;28;20028;-71
2022/07/22 01:21:04;;;;;;;9.98;2.55;;;17.10;99.90;;;;;;5057593;28;20048;-71
2022/07/22 01:23:30;;;;;;;13.73;2.70;;;17.10;99.90;;;;;;5075789;28;20127;-71
2022/07/22 01:25:56;;;;;;;7.07;2.65;;;17.10;99.90;;;;;;5076066;28;20127;-71
2022/07/22 01:28:23;;;;;;;12.48;2.80;;;17.10;99.90;;;;;;5057231;28;20040;-71
2022/07/22 01:30:49;;;;;;;11.25;2.50;;;17.00;99.90;;;;;;5075538;28;20041;-71
2022/07/22 01:33:19;;;;;;;8.57;2.72;;;17.00;99.90;;;;;;5057850;28;20075;-70
2022/07/22 01:35:45;;;;;;;7.45;2.15;;;17.00;99.90;;;;;;5057672;28;20091;-71
2022/07/22 01:38:11;;;;;;;6.88;2.40;;;17.30;99.90;;;;;;5075085;28;20493;-71
2022/07/22 01:40:37;;;;;;;10.98;2.50;;;17.10;99.90;;;;;;5074312;28;20119;-71
2022/07/22 01:43:03;;;;;;;12.35;2.85;;;17.00;99.90;;;;;;5074808;28;20045;-71
2022/07/22 01:45:29;;;;;;;8.38;2.75;;;17.00;99.90;;;;;;5075479;28;20040;-72
2022/07/22 01:47:54;;;;;;;7.72;2.50;;;17.00;99.90;;;;;;5056983;28;20083;-71
2022/07/22 01:50:20;;;;;;;7.60;2.00;;;17.00;99.90;;;;;;5074979;28;20040;-71
2022/07/22 01:52:46;;;;;;;6.10;2.17;;;17.40;99.90;;;;;;5075382;28;20044;-71
2022/07/22 01:55:12;;;;;;;8.95;2.38;;;17.10;99.90;;;;;;5075677;28;20037;-71
2022/07/22 01:57:38;;;;;;;6.90;2.10;;;17.10;99.90;;;;;;5074563;28;20052;-71
2022/07/22 02:00:06;;;;;;;8.43;2.67;;;16.80;99.90;;;;;;5055554;28;20507;-71
2022/07/22 02:02:32;;;;;;;7.95;2.30;;;17.00;99.90;;;;;;5074949;28;20040;-71
2022/07/22 02:04:58;;;;;;;8.20;2.10;;;17.00;99.90;;;;;;5075313;28;20051;-71
2022/07/22 02:07:24;;;;;;;8.15;2.00;;;17.00;99.90;;;;;;5074527;28;20139;-72
2022/07/22 02:09:50;;;;;;;5.32;1.92;;;17.00;99.90;;;;;;5074888;28;20040;-73
2022/07/22 02:12:15;;;;;;;5.35;1.90;;;17.00;99.90;;;;;;5056670;28;20527;-71
2022/07/22 02:14:41;;;;;;;9.52;2.30;;;17.00;99.90;;;;;;5072690;28;20047;-71
2022/07/22 02:17:08;;;;;;;9.15;2.35;;;17.30;99.90;;;;;;5075156;28;20091;-71
2022/07/22 02:19:33;;;;;;;8.07;2.03;;;17.00;99.90;;;;;;5074357;28;20446;-71
2022/07/22 02:21:59;;;;;;;7.40;2.20;;;17.10;99.90;;;;;;5074339;28;20046;-71
2022/07/22 02:24:25;;;;;;;9.73;2.10;;;17.10;99.90;;;;;;5074785;28;20449;-71
2022/07/22 02:26:50;;;;;;;7.45;2.40;;;17.10;99.90;;;;;;5057026;28;20123;-71
2022/07/22 02:29:16;;;;;;;8.23;2.40;;;17.10;99.90;;;;;;5053334;28;20181;-71
2022/07/22 02:31:41;;;;;;;7.53;2.35;;;17.10;99.90;;;;;;5074260;28;20047;-71
2022/07/22 02:34:07;;;;;;;10.40;2.25;;;17.30;99.90;;;;;;5074445;28;20127;-71
2022/07/22 02:36:33;;;;;;;8.93;2.65;;;17.10;99.90;;;;;;5074653;28;20075;-71
2022/07/22 02:38:59;;;;;;;10.05;2.30;;;17.10;99.90;;;;;;5074275;28;20120;-71
2022/07/22 02:41:24;;;;;;;9.85;2.30;;;17.10;99.90;;;;;;5062984;28;20482;-71
2022/07/22 02:43:53;;;;;;;8.93;2.22;;;17.00;99.90;;;;;;5065554;28;20076;-71
2022/07/22 02:46:20;;;;;;;7.90;2.13;;;17.60;99.90;;;;;;5073109;28;20047;-71
2022/07/22 02:48:46;;;;;;;6.63;2.10;;;17.00;99.90;;;;;;5074044;28;20406;-71
2022/07/22 02:51:11;;;;;;;9.32;2.25;;;17.10;99.90;;;;;;5073837;28;20044;-71
2022/07/22 02:53:37;;;;;;;7.78;2.17;;;17.10;99.90;;;;;;5074004;28;20101;-71
2022/07/22 02:56:03;;;;;;;8.68;2.08;;;17.10;99.90;;;;;;5074255;28;20044;-71
2022/07/22 02:58:28;;;;;;;10.45;2.28;;;17.10;99.90;;;;;;5073671;28;20040;-71
2022/07/22 03:00:54;;;;;;;8.40;2.10;;;17.30;99.90;;;;;;5072697;28;20488;-71
2022/07/22 03:03:20;;;;;;;8.85;2.22;;;17.10;99.90;;;;;;5055666;28;20484;-71
2022/07/22 03:05:45;;;;;;;10.95;2.10;;;17.10;99.90;;;;;;5074299;28;20048;-71
2022/07/22 03:08:11;;;;;;;7.38;2.03;;;17.10;99.90;;;;;;5072568;28;20041;-71
2022/07/22 03:10:37;;;;;;;11.88;2.17;;;17.00;99.90;;;;;;5054314;28;20056;-71
2022/07/22 03:13:03;;;;;;;6.15;1.80;;;17.00;99.90;;;;;;5038348;28;20124;-71
2022/07/22 03:15:28;;;;;;;10.70;1.98;;;17.30;99.90;;;;;;5073265;28;20413;-71
2022/07/22 03:17:54;;;;;;;6.32;2.15;;;16.90;99.90;;;;;;5073588;28;20131;-71
2022/07/22 03:20:19;;;;;;;6.47;2.05;;;16.90;99.90;;;;;;5073367;28;20079;-71
2022/07/22 03:22:45;;;;;;;5.38;2.17;;;17.10;99.90;;;;;;5072384;28;20049;-71
2022/07/22 03:25:11;;;;;;;9.73;2.15;;;17.00;99.90;;;;;;5073913;28;20040;-71
2022/07/22 03:27:37;;;;;;;7.28;2.30;;;16.90;99.90;;;;;;5055419;28;20056;-71
2022/07/22 03:30:04;;;;;;;5.85;1.90;;;16.80;99.90;;;;;;5066333;28;20045;-71
2022/07/22 03:32:30;;;;;;;6.78;1.92;;;16.90;99.90;;;;;;5052893;28;20060;-71
2022/07/22 03:34:55;;;;;;;8.43;2.20;;;16.90;99.90;;;;;;5035969;28;20049;-71
2022/07/22 03:37:21;;;;;;;6.10;2.50;;;16.90;99.90;;;;;;5052956;28;20037;-70
2022/07/22 03:39:47;;;;;;;6.25;1.77;;;16.90;99.90;;;;;;5058556;28;20036;-71
2022/07/22 03:42:13;;;;;;;7.20;2.15;;;17.40;99.90;;;;;;5072898;28;20374;-71
2022/07/22 03:44:39;;;;;;;7.47;1.95;;;16.80;99.90;;;;;;5055286;28;20123;-71
2022/07/22 03:47:04;;;;;;;8.95;1.90;;;16.80;99.90;;;;;;5038565;28;20128;-71
2022/07/22 03:49:31;;;;;;;7.80;2.38;;;16.80;99.90;;;;;;5055369;28;20056;-72
2022/07/22 03:51:57;;;;;;;6.18;2.10;;;16.90;99.90;;;;;;5072541;28;20093;-71
2022/07/22 03:54:23;;;;;;;6.82;2.45;;;16.90;99.90;;;;;;5072828;28;20064;-71
2022/07/22 03:56:48;;;;;;;8.90;2.30;;;16.90;99.90;;;;;;5072906;28;20570;-71
2022/07/22 03:59:15;;;;;;;10.85;2.50;;;16.80;99.90;;;;;;5072836;28;20174;-71
2022/07/22 04:01:40;;;;;;;9.32;2.13;;;16.70;99.90;;;;;;5054722;28;20501;-71
2022/07/22 04:04:06;;;;;;;7.90;2.10;;;16.80;99.90;;;;;;5072998;28;20055;-71
2022/07/22 04:06:32;;;;;;;6.75;2.25;;;16.70;99.90;;;;;;5072550;28;20127;-71
2022/07/22 04:08:58;;;;;;;8.73;2.47;;;16.70;99.90;;;;;;5072691;28;20040;-71
2022/07/22 04:11:23;;;;;;;7.72;2.00;;;16.70;99.90;;;;;;5054298;28;20044;-71
2022/07/22 04:13:49;;;;;;;6.75;2.35;;;17.30;99.90;;;;;;5061548;28;20041;-71
2022/07/22 04:16:15;;;;;;;11.57;2.40;;;16.70;99.90;;;;;;5053137;28;20045;-71
2022/07/22 04:18:40;;;;;;;7.97;2.00;;;16.80;99.90;;;;;;5052738;28;20128;-71
2022/07/22 04:21:06;;;;;;;8.77;2.10;;;16.80;99.90;;;;;;5053815;28;20094;-71
2022/07/22 04:23:32;;;;;;;8.57;2.08;;;16.80;99.90;;;;;;5072381;28;20044;-71
2022/07/22 04:25:57;;;;;;;10.77;2.28;;;17.00;99.90;;;;;;5072821;28;20124;-71
2022/07/22 04:28:23;;;;;;;7.93;2.10;;;16.80;99.90;;;;;;5072321;28;20047;-71
2022/07/22 04:30:48;;;;;;;6.93;2.08;;;17.00;99.90;;;;;;5072416;28;20142;-71
2022/07/22 04:33:14;;;;;;;6.38;2.17;;;16.80;99.90;;;;;;5071256;28;20105;-71
2022/07/22 04:35:40;;;;;;;10.68;2.08;;;16.80;99.90;;;;;;5072683;28;20131;-71
2022/07/22 04:38:05;;;;;;;10.20;2.35;;;16.80;99.90;;;;;;5054036;28;20041;-71
2022/07/22 04:40:31;;;;;;;9.90;2.38;;;16.80;99.90;;;;;;5070455;28;20056;-71
2022/07/22 04:42:56;;;;;;;10.75;2.50;;;17.20;99.90;;;;;;5070738;28;20041;-71
2022/07/22 04:45:22;;;;;;;6.85;2.22;;;16.70;99.90;;;;;;5072244;28;20049;-71
2022/07/22 04:47:48;;;;;;;8.63;2.28;;;16.80;99.90;;;;;;5071983;28;20393;-71
2022/07/22 04:50:13;;;;;;;11.23;2.10;;;16.80;99.90;;;;;;5071936;28;20238;-71
2022/07/22 04:52:39;;;;;;;5.85;2.00;;;16.70;99.90;;;;;;5035524;28;20047;-71
2022/07/22 04:55:05;;;;;;;5.50;2.10;;;16.70;99.90;;;;;;5056416;28;20044;-71
2022/07/22 04:57:31;;;;;;;7.47;2.05;;;16.80;99.90;;;;;;5056157;28;20049;-71
2022/07/22 04:59:57;;;;;;;8.32;2.38;;;16.90;99.90;;;;;;5063041;28;20045;-71
2022/07/22 05:02:22;;;;;;;8.50;2.05;;;16.90;99.90;;;;;;5055949;28;20390;-72
2022/07/22 05:04:48;;;;;;;7.93;2.00;;;16.80;99.90;;;;;;5039140;28;20041;-71
2022/07/22 05:07:14;;;;;;;5.65;2.00;;;16.80;99.90;;;;;;5074716;28;20036;-71
2022/07/22 05:09:39;;;;;;;7.20;2.35;;;17.30;99.90;;;;;;5076352;28;20063;-71
2022/07/22 05:12:05;;;;;;;7.55;1.80;;;16.90;99.90;;;;;;5057470;28;20056;-71
2022/07/22 05:14:31;;;;;;;8.45;1.80;;;16.90;99.90;;;;;;5075898;28;20045;-71
2022/07/22 05:16:56;;;;;;;5.28;1.73;;;17.50;99.90;;;;;;5075599;28;20060;-71
2022/07/22 05:19:22;;;;;;;6.05;1.90;;;16.90;99.90;;;;;;5075426;28;20047;-71
2022/07/22 05:21:48;;;;;;;6.50;2.00;;;16.90;99.90;;;;;;5056380;28;20040;-72
2022/07/22 05:24:13;;;;;;;7.32;2.47;;;17.00;99.90;;;;;;5073689;28;20078;-71
2022/07/22 05:26:39;;;;;;;6.38;2.10;;;17.00;99.90;;;;;;5074399;28;20048;-71
2022/07/22 05:29:05;;;;;;;4.72;1.95;;;17.20;99.90;;;;;;5075387;28;20040;-71
2022/07/22 05:31:31;;;;;;;6.82;2.05;;;17.10;99.90;;;;;;5074782;28;20120;-71
2022/07/22 05:33:57;;;;;;;8.68;2.03;;;17.10;99.90;;;;;;5057263;28;20040;-70
2022/07/22 05:36:23;;;;;;;6.28;1.88;;;17.70;99.90;;;;;;5075038;28;20070;-70
2022/07/22 05:38:48;;;;;;;5.38;1.75;;;17.40;99.90;;;;;;5075650;28;20041;-70
2022/07/22 05:41:14;;;;;;;9.95;2.28;;;17.10;99.90;;;;;;5057380;28;20054;-70
2022/07/22 05:43:40;;;;;;;6.43;1.95;;;17.10;99.90;;;;;;5075396;28;20049;-70
2022/07/22 05:46:07;;;;;;;9.68;2.05;;;17.20;99.90;;;;;;5075270;28;20036;-70
2022/07/22 05:48:32;;;;;;;5.05;2.10;;;17.20;99.90;;;;;;5072095;28;20045;-70
2022/07/22 05:50:58;;;;;;;5.95;1.60;;;17.20;99.90;;;;;;5070939;28;20055;-70
2022/07/22 05:53:24;;;;;;;10.13;1.98;;;17.20;99.90;;;;;;5075259;28;20037;-70
2022/07/22 05:55:49;;;;;;;7.22;1.90;;;17.20;99.90;;;;;;5056907;28;20053;-70
2022/07/22 05:58:15;;;;;;;5.25;2.00;;;17.20;99.90;;;;;;5075055;28;20033;-70
2022/07/22 06:00:42;;;;;;;5.88;1.77;;;17.30;99.90;;;;;;5075340;28;20036;-70
2022/07/22 06:03:07;;;;;;;6.32;1.85;;;17.30;99.90;;;;;;5075030;28;20370;-70
2022/07/22 06:05:35;;;;;;;6.30;1.80;;;17.30;99.90;;;;;;5071490;28;20048;-70
2022/07/22 06:08:01;;;;;;;5.90;1.80;;;17.40;99.90;;;;;;5073765;28;20067;-70
2022/07/22 06:10:26;;;;;;;5.78;2.00;;;17.60;99.90;;;;;;5075143;28;20381;-70
2022/07/22 06:12:52;;;;;;;5.18;1.80;;;17.40;99.90;;;;;;5074410;28;20056;-70
2022/07/22 06:15:18;;;;;;;8.35;2.00;;;17.40;99.90;;;;;;5075008;28;20047;-71
2022/07/22 06:17:43;;;;;;;8.40;2.00;;;17.40;99.90;;;;;;5056777;28;20048;-70
2022/07/22 06:20:09;;;;;;;8.10;2.13;;;17.40;99.90;;;;;;5074299;28;20037;-70
2022/07/22 06:22:35;;;;;;;5.18;1.60;;;17.40;99.90;;;;;;5054854;28;20179;-70
2022/07/22 06:25:00;;;;;;;5.53;2.03;;;17.60;99.90;;;;;;5040316;28;20055;-70
2022/07/22 06:27:26;;;;;;;10.20;2.30;;;17.40;99.90;;;;;;5074351;28;20169;-70
2022/07/22 06:29:51;;;;;;;13.30;2.42;;;17.50;99.90;;;;;;5074737;28;20055;-70
2022/07/22 06:32:17;;;;;;;7.13;1.95;;;17.50;99.90;;;;;;5055951;28;20047;-71
2022/07/22 06:34:42;;;;;;;11.50;2.25;;;17.60;99.90;;;;;;5071834;28;20122;-70
2022/07/22 06:37:08;;;;;;;7.25;2.17;;;17.70;99.90;;;;;;5070258;28;20604;-70
2022/07/22 06:39:34;;;;;;;6.88;1.98;;;17.70;99.90;;;;;;5074178;28;20040;-70
2022/07/22 06:41:59;;;;;;;6.80;1.92;;;17.70;99.90;;;;;;5064808;28;20162;-70
2022/07/22 06:44:25;;;;;;;10.05;2.17;;;17.70;99.90;;;;;;5074311;28;20116;-72
2022/07/22 06:46:50;;;;;;;9.05;2.13;;;17.80;99.90;;;;;;5074356;28;20048;-72
2022/07/22 06:49:16;;;;;;;6.97;1.75;;;17.70;99.90;;;;;;5074092;28;20079;-69
2022/07/22 06:51:42;;;;;;;6.22;1.90;;;17.80;99.90;;;;;;5073554;28;20036;-71
2022/07/22 06:54:08;;;;;;;7.35;2.05;;;17.70;99.90;;;;;;5073933;28;20473;-72
2022/07/22 06:56:34;;;;;;;7.68;1.90;;;17.70;99.90;;;;;;5073891;28;20057;-71
2022/07/22 06:58:59;;;;;;;6.05;1.83;;;17.80;99.90;;;;;;5070654;28;20086;-71
2022/07/22 07:01:25;;;;;;;6.13;1.80;;;17.90;99.90;;;;;;5060774;28;20037;-71
2022/07/22 07:03:51;;;;;;;5.75;1.80;;;17.90;99.90;;;;;;5072145;28;20063;-72
2022/07/22 07:06:17;;;;;;;5.63;1.67;;;18.00;99.90;;;;;;5073757;28;20041;-72
2022/07/22 07:08:42;;;;;;;6.68;1.80;;;18.00;99.90;;;;;;5053742;28;20364;-70
2022/07/22 07:11:08;;;;;;;4.95;1.67;;;18.00;99.90;;;;;;5055329;28;20044;-69
2022/07/22 07:13:34;;;;;;;8.10;1.60;;;18.10;99.90;;;;;;5072621;28;20045;-69
2022/07/22 07:15:59;;;;;;;8.38;1.60;;;18.10;99.90;;;;;;5073037;28;20060;-69
2022/07/22 07:18:25;;;;;;;5.03;1.83;;;18.10;99.90;;;;;;5073125;28;20086;-69
2022/07/22 07:20:51;;;;;;;8.02;1.90;;;18.10;99.90;;;;;;5073294;28;20094;-70
2022/07/22 07:23:16;;;;;;;5.72;1.50;;;18.10;99.90;;;;;;5072779;28;20066;-70
2022/07/22 07:25:42;;;;;;;8.23;2.08;;;18.10;99.90;;;;;;5073343;28;20048;-70
2022/07/22 07:28:08;;;;;;;6.20;1.50;;;18.20;99.90;;;;;;5072895;28;20370;-70
2022/07/22 07:30:34;;;;;;;5.18;1.70;;;18.30;99.90;;;;;;5054871;28;20123;-70
2022/07/22 07:33:00;;;;;;;4.53;1.67;;;18.30;99.90;;;;;;5072702;28;20044;-70
2022/07/22 07:35:27;;;;;;;5.00;1.48;;;18.40;99.90;;;;;;5072757;28;20036;-70
2022/07/22 07:37:53;;;;;;;7.57;1.73;;;18.60;99.90;;;;;;5071320;28;20036;-69
2022/07/22 07:40:19;;;;;;;5.38;1.95;;;18.40;99.90;;;;;;5054688;28;20459;-69
2022/07/22 07:42:44;;;;;;;5.45;1.83;;;18.50;99.90;;;;;;5054518;28;20048;-70
2022/07/22 07:45:11;;;;;;;5.22;1.52;;;18.50;99.90;;;;;;5038172;28;20055;-70
2022/07/22 07:47:36;;;;;;;3.28;1.40;;;18.30;99.90;;;;;;5072202;28;20049;-70
2022/07/22 07:50:04;;;;;;;5.38;1.58;;;18.40;99.90;;;;;;5072401;28;20446;-70
2022/07/22 07:52:30;;;;;;;3.60;1.60;;;18.50;99.90;;;;;;5070741;28;20052;-69
2022/07/22 07:54:56;;;;;;;5.18;1.60;;;18.50;99.90;;;;;;5072735;28;20108;-70
2022/07/22 07:57:22;;;;;;;5.00;1.55;;;18.60;99.90;;;;;;5070321;28;20036;-70
2022/07/22 07:59:48;;;;;;;10.07;2.05;;;18.60;99.90;;;;;;5053745;28;20493;-70
2022/07/22 08:02:13;;;;;;;6.55;1.45;;;18.80;99.90;;;;;;5072030;28;20091;-71
2022/07/22 08:04:39;;;;;;;3.70;1.50;;;18.50;99.90;;;;;;5072481;28;20395;-71
2022/07/22 08:07:06;;;;;;;5.95;1.70;;;18.50;99.90;;;;;;5072293;28;20094;-71
2022/07/22 08:09:32;;;;;;;6.30;1.60;;;19.10;99.90;;;;;;5072010;28;20037;-71
2022/07/22 08:11:58;;;;;;;5.35;1.50;;;19.00;99.90;;;;;;5053103;28;20052;-71
2022/07/22 08:14:24;;;;;;;5.95;1.40;;;18.70;99.90;;;;;;5070665;28;20045;-71
2022/07/22 08:16:51;;;;;;;5.10;1.50;;;18.80;99.90;;;;;;5071231;28;20535;-71
2022/07/22 08:19:16;;;;;;;4.40;1.52;;;19.10;99.90;;;;;;5068892;28;20044;-72
2022/07/22 08:21:42;;;;;;;5.55;1.70;;;18.80;99.90;;;;;;5058205;28;20124;-71
2022/07/22 08:24:11;;;;;;;8.50;1.60;;;18.70;99.90;;;;;;5032639;28;20045;-71
2022/07/22 08:26:37;;;;;;;5.88;1.70;;;18.60;99.90;;;;;;5034592;28;20048;-71
2022/07/22 08:29:05;;;;;;;6.47;1.85;;;18.60;99.90;;;;;;5051179;28;20099;-71
2022/07/22 08:31:34;;;;;;;6.13;1.63;;;18.60;99.90;;;;;;5051982;28;20132;-71
2022/07/22 08:34:00;;;;;;;6.88;1.83;;;18.60;99.90;;;;;;5052139;28;20041;-71
2022/07/22 08:36:26;;;;;;;8.57;1.92;;;18.60;99.90;;;;;;5052088;28;20053;-71
2022/07/22 08:38:52;;;;;;;11.63;2.30;;;18.60;99.90;;;;;;5051167;28;20044;-71
2022/07/22 08:41:20;;;;;;;4.65;1.80;;;18.50;99.90;;;;;;5071919;28;20085;-83
2022/07/22 08:43:47;;;;;;;6.38;1.65;;;18.70;99.90;;;;;;5072672;28;20059;-84
2022/07/22 08:46:13;;;;;;;8.65;2.13;;;18.70;99.90;;;;;;5034830;28;20099;-85
2022/07/22 08:48:39;;;;;;;6.55;1.60;;;18.80;99.90;;;;;;5052208;28;20045;-84
2022/07/22 08:51:06;;;;;;;4.72;1.73;;;18.70;99.90;;;;;;5051710;28;20091;-85
2022/07/22 08:53:32;;;;;;;5.90;1.90;;;18.70;99.90;;;;;;5034310;28;20110;-84
2022/07/22 08:55:58;;;;;;;7.53;1.67;;;18.70;99.90;;;;;;5052304;28;20045;-80
2022/07/22 08:58:25;;;;;;;6.45;1.80;;;18.70;99.90;;;;;;5052042;28;20068;-70
2022/07/22 09:01:15;;;;;;;7.95;1.80;;;18.80;99.90;;;;;;5051601;28;20167;-70
2022/07/22 09:03:57;;;;;;;7.32;1.67;;;18.80;99.90;;;;;;5034016;28;20072;-70
2022/07/22 09:06:25;;;;;;;7.22;1.70;;;18.80;99.90;;;;;;5033636;28;20049;-70
2022/07/22 09:08:54;;;;;;;9.63;2.13;;;18.80;99.90;;;;;;5051440;28;20041;-70
2022/07/22 09:11:23;;;;;;;10.80;1.70;;;18.90;99.90;;;;;;5032241;28;20098;-71
2022/07/22 09:13:49;;;;;;;5.90;1.75;;;19.00;99.90;;;;;;5049224;28;20045;-70
2022/07/22 09:16:15;;;;;;;6.97;1.77;;;19.00;99.90;;;;;;5033686;28;20052;-71
2022/07/22 09:18:46;;;;;;;5.00;1.48;;;19.00;99.90;;;;;;5051478;28;20482;-71
2022/07/22 09:21:13;;;;;;;7.53;1.60;;;18.90;99.90;;;;;;5051808;28;20057;-70
2022/07/22 09:23:41;;;;;;;10.00;2.10;;;19.00;99.90;;;;;;5051515;28;20077;-71
2022/07/22 09:26:07;;;;;;;8.45;1.80;;;19.00;99.90;;;;;;5033454;28;20586;-70
2022/07/22 09:28:33;;;;;;;4.25;1.60;;;19.00;99.90;;;;;;5051240;28;20149;-71
2022/07/22 09:30:59;;;;;;;5.22;1.50;;;19.00;99.90;;;;;;5051378;28;20500;-71
2022/07/22 09:33:25;;;;;;;5.55;1.52;;;19.10;99.90;;;;;;5033758;28;20049;-70
2022/07/22 09:35:52;;;;;;;6.10;1.70;;;19.20;99.90;;;;;;5017071;28;20128;-70
2022/07/22 09:38:28;;;;;;;6.30;1.70;;;19.20;99.90;;;;;;5051337;28;20041;-70
2022/07/22 09:40:53;;;;;;;7.22;1.60;;;19.30;99.90;;;;;;5036095;28;20124;-71
2022/07/22 09:43:20;;;;;;;7.35;2.05;;;19.30;99.90;;;;;;5053797;28;20506;-70
2022/07/22 09:45:53;;;;;;;8.23;2.05;;;19.30;99.90;;;;;;5037198;28;20421;-71
2022/07/22 09:48:21;;;;;;;5.65;1.88;;;19.20;99.90;;;;;;5054434;28;20055;-71
2022/07/22 09:50:48;;;;;;;7.57;1.80;;;19.10;99.90;;;;;;5039048;28;20048;-71
2022/07/22 09:53:15;;;;;;;5.35;1.77;;;19.30;99.90;;;;;;5089028;28;20141;-71
2022/07/22 09:55:40;;;;;;;7.53;1.70;;;19.10;99.90;;;;;;5053939;28;20033;-71
2022/07/22 09:58:11;;;;;;;4.63;1.60;;;19.10;99.90;;;;;;5075440;28;20423;-71
2022/07/22 10:00:38;;;;;;;5.25;1.73;;;19.10;99.90;;;;;;5092023;28;20048;-70
2022/07/22 10:03:13;;;;;;;3.95;1.40;;;19.20;99.90;;;;;;5062530;28;20186;-70
2022/07/22 10:05:41;;;;;;;8.10;1.83;;;19.30;99.90;;;;;;5053716;28;20045;-70
2022/07/22 10:08:08;;;;;;;7.10;1.40;;;19.30;99.90;;;;;;5071261;28;20056;-70
2022/07/22 10:10:35;;;;;;;4.95;1.20;;;19.40;99.90;;;;;;5072328;28;20106;-71
2022/07/22 10:13:03;;;;;;;6.05;1.50;;;19.40;99.90;;;;;;5053136;28;20119;-70
2022/07/22 10:15:30;;;;;;;5.93;1.55;;;19.60;99.90;;;;;;5070854;28;20056;-71
2022/07/22 10:17:58;;;;;;;3.40;1.20;;;19.60;99.90;;;;;;5071167;28;20127;-71
2022/07/22 10:20:28;;;;;;;5.63;1.38;;;19.60;99.90;;;;;;5071243;28;20052;-71
2022/07/22 10:22:58;;;;;;;2.70;1.10;;;19.80;99.90;;;;;;5053229;28;20147;-70
2022/07/22 10:25:29;;;;;;;4.72;1.60;;;20.00;99.90;;;;;;5072585;28;20426;-71
2022/07/22 10:28:02;;;;;;;4.63;1.52;;;20.20;99.90;;;;;;5069370;28;20425;-71
2022/07/22 10:30:35;;;;;;;2.97;1.20;;;20.30;99.90;;;;;;5086050;28;20058;-71
2022/07/22 10:33:11;;;;;;;4.45;1.30;;;20.70;99.90;;;;;;5091372;28;20353;-71
2022/07/22 10:35:58;;;;;;;2.83;1.33;;;20.80;99.90;;;;;;5082246;28;20040;-71
2022/07/22 10:38:25;;;;;;;3.00;1.20;;;21.10;99.90;;;;;;5062918;28;20052;-71
2022/07/22 10:41:03;;;;;;;2.40;1.00;;;21.20;99.90;;;;;;5052395;28;20037;-71
2022/07/22 10:43:43;;;;;;;6.93;1.42;;;21.30;99.90;;;;;;5052759;28;20129;-72
2022/07/22 10:46:09;;;;;;;3.67;1.20;;;21.10;99.90;;;;;;5051188;28;20052;-71
2022/07/22 10:48:35;;;;;;;3.38;1.23;;;21.00;99.90;;;;;;5050823;28;20367;-72
2022/07/22 10:51:16;;;;;;;6.10;1.50;;;21.00;99.90;;;;;;5056108;28;20123;-72
2022/07/22 10:53:44;;;;;;;3.10;1.30;;;20.90;99.90;;;;;;5052605;28;20048;-71
2022/07/22 10:56:16;;;;;;;3.45;1.10;;;20.80;99.90;;;;;;5070546;28;20563;-71
2022/07/22 10:58:45;;;;;;;2.30;1.10;;;20.60;99.90;;;;;;5069787;28;20056;-72
2022/07/22 11:01:13;;;;;;;3.47;1.30;;;20.40;99.90;;;;;;5052613;28;20036;-72
2022/07/22 11:03:41;;;;;;;3.38;1.23;;;20.40;99.90;;;;;;5071500;28;20434;-73
2022/07/22 11:06:26;;;;;;;2.45;1.13;;;20.30;99.90;;;;;;5050310;28;20036;-71
2022/07/22 11:08:55;;;;;;;4.05;1.10;;;20.30;99.90;;;;;;5070129;28;20385;-72
2022/07/22 11:11:44;;;;;;;3.63;1.40;;;20.40;99.90;;;;;;5069429;28;20152;-72
2022/07/22 11:14:15;;;;;;;5.45;1.30;;;20.40;99.90;;;;;;5052815;28;20063;-71
2022/07/22 11:16:41;;;;;;;4.55;1.30;;;20.30;99.90;;;;;;5070372;28;20055;-72
2022/07/22 11:19:07;;;;;;;3.97;1.20;;;20.20;99.90;;;;;;5069987;28;20323;-72
2022/07/22 11:21:33;;;;;;;5.25;1.52;;;20.20;99.90;;;;;;5070033;28;20050;-72
2022/07/22 11:24:04;;;;;;;2.70;1.02;;;20.10;99.90;;;;;;5070274;28;20040;-70
2022/07/22 11:26:44;;;;;;;4.57;1.35;;;20.10;99.90;;;;;;5076177;28;20473;-70
2022/07/22 11:29:15;;;;;;;3.88;1.20;;;20.10;99.90;;;;;;5072625;28;20056;-70
2022/07/22 11:31:40;;;;;;;5.55;1.38;;;20.10;99.90;;;;;;5072122;28;20051;-70
2022/07/22 11:34:09;;;;;;;5.45;1.30;;;20.20;99.90;;;;;;5069143;28;20040;-70
2022/07/22 11:36:37;;;;;;;3.22;1.10;;;20.20;99.90;;;;;;5053638;28;20051;-70
2022/07/22 11:39:04;;;;;;;2.67;1.17;;;20.40;99.90;;;;;;5076356;28;20090;-70
2022/07/22 11:41:30;;;;;;;2.75;0.95;;;20.60;99.90;;;;;;5077668;28;20080;-71
2022/07/22 11:43:58;;;;;;;6.47;1.10;;;20.70;99.90;;;;;;5089790;28;20051;-71
2022/07/22 11:46:25;;;;;;;3.35;1.13;;;21.00;99.90;;;;;;5054539;28;20044;-70
2022/07/22 11:48:56;;;;;;;4.28;1.10;;;21.10;99.90;;;;;;5072173;28;20121;-71
2022/07/22 11:51:30;;;;;;;2.20;1.00;;;21.30;99.90;;;;;;5054496;28;20052;-80
2022/07/22 11:53:57;;;;;;;2.47;1.17;;;21.40;99.90;;;;;;5089914;28;20055;-80
2022/07/22 11:56:24;;;;;;;8.30;1.52;;;21.50;99.90;;;;;;5084827;28;20394;-80
2022/07/22 11:58:54;;;;;;;3.85;1.13;;;21.50;99.90;;;;;;5050734;28;20052;-80
2022/07/22 12:01:20;;;;;;;3.05;1.00;;;21.40;99.90;;;;;;5070913;28;20044;-80
2022/07/22 12:03:51;;;;;;;2.50;1.10;;;21.40;99.90;;;;;;5053635;28;20497;-80
2022/07/22 12:06:18;;;;;;;2.58;1.10;;;21.40;99.90;;;;;;5072697;28;20160;-80
2022/07/22 12:08:54;;;;;;;1.73;1.00;;;21.30;99.90;;;;;;5070119;28;20123;-80
2022/07/22 12:11:22;;;;;;;2.60;1.02;;;21.20;99.90;;;;;;5056864;28;20060;-81
2022/07/22 12:13:50;;;;;;;2.10;0.90;;;21.20;99.90;;;;;;5034959;28;20402;-80
2022/07/22 12:16:29;;;;;;;3.15;0.90;;;21.30;99.90;;;;;;5052510;28;20110;-80
2022/07/22 12:19:04;;;;;;;2.58;1.00;;;21.40;99.90;;;;;;5052184;28;20135;-80
2022/07/22 12:21:33;;;;;;;1.77;0.82;;;21.80;99.90;;;;;;5071030;28;20115;-79
2022/07/22 12:24:06;;;;;;;4.55;1.10;;;21.60;99.90;;;;;;5050919;28;20106;-77
2022/07/22 12:26:46;;;;;;;3.13;1.00;;;21.70;99.90;;;;;;5050655;28;20048;-77
2022/07/22 12:29:18;;;;;;;3.60;1.05;;;21.70;99.90;;;;;;5050091;28;20059;-77
2022/07/22 12:31:50;;;;;;;2.15;1.10;;;21.70;99.90;;;;;;5070080;28;20135;-77
2022/07/22 12:34:17;;;;;;;3.40;1.00;;;21.60;99.90;;;;;;5070026;28;20533;-77
2022/07/22 12:36:46;;;;;;;2.25;0.90;;;21.60;99.90;;;;;;5069008;28;20032;-78
2022/07/22 12:39:17;;;;;;;3.25;1.00;;;21.50;99.90;;;;;;5068794;28;20164;-77
2022/07/22 12:41:51;;;;;;;3.60;0.85;;;21.40;99.90;;;;;;5069188;28;20431;-77
2022/07/22 12:44:25;;;;;;;1.38;0.80;;;21.40;99.90;;;;;;5070005;28;20831;-77